Time;durP1;ratioP1;P1;durP2;ratioP2;P2;SDS_P1;SDS_P2;PMS_P1;PMS_P2;Temp;Humidity;BMP_temperature;BMP_pressure;BME280_temperature;BME280_humidity;BME280_pressure;Samples;Min_cycle;Max_cycle;Signal;HPM_P1;HPM_P2
2023/04/16 00:00:58;;;;;;;;;1.00;1.00;;;;;21.10;54.80;100749.51;110297;1264;20166;-39
2023/04/16 00:03:33;;;;;;;;;1.00;1.00;;;;;21.11;55.00;100749.48;110187;1264;20656;-40
2023/04/16 00:06:00;;;;;;;;;1.00;1.00;;;;;21.10;54.95;100752.26;110212;1249;18518;-39
2023/04/16 00:08:27;;;;;;;;;1.00;1.00;;;;;21.10;54.96;100753.14;110175;1257;21969;-40
2023/04/16 00:10:55;;;;;;;;;1.00;1.00;;;;;21.11;55.02;100753.45;110219;1249;20543;-40
2023/04/16 00:13:23;;;;;;;;;1.00;1.00;;;;;21.11;54.99;100752.34;110183;1251;22764;-40
2023/04/16 00:15:50;;;;;;;;;1.67;1.67;;;;;21.11;54.83;100753.42;110173;1250;18602;-40
2023/04/16 00:18:19;;;;;;;;;1.00;1.00;;;;;21.10;55.03;100754.27;110053;1251;20930;-39
2023/04/16 00:20:47;;;;;;;;;1.00;1.00;;;;;21.09;54.97;100755.06;110156;1264;19873;-40
2023/04/16 00:23:14;;;;;;;;;1.00;1.00;;;;;21.11;54.88;100759.11;110214;1251;20005;-39
2023/04/16 00:25:42;;;;;;;;;1.00;1.00;;;;;21.10;54.92;100759.39;110294;1251;20725;-39
2023/04/16 00:28:09;;;;;;;;;2.00;2.00;;;;;21.10;54.95;100762.27;110247;1264;18353;-42
2023/04/16 00:30:37;;;;;;;;;1.00;1.00;;;;;21.10;54.90;100764.96;110214;1264;22674;-40
2023/04/16 00:33:04;;;;;;;;;2.00;2.00;;;;;21.10;54.86;100767.16;110181;1264;19527;-40
2023/04/16 00:35:32;;;;;;;;;1.00;1.00;;;;;21.10;54.92;100767.66;110208;1251;19642;-38
2023/04/16 00:37:59;;;;;;;;;1.00;1.00;;;;;21.10;54.85;100770.41;110217;1257;19856;-38
2023/04/16 00:40:27;;;;;;;;;1.00;1.00;;;;;21.10;54.93;100766.80;110221;1264;19374;-38
2023/04/16 00:42:54;;;;;;;;;1.50;1.50;;;;;21.09;54.85;100766.54;110192;1251;18647;-39
2023/04/16 00:45:22;;;;;;;;;1.00;1.00;;;;;21.08;54.98;100765.18;110220;1251;20191;-39
2023/04/16 00:47:49;;;;;;;;;1.00;1.00;;;;;21.09;54.90;100767.59;110232;1251;20951;-39
2023/04/16 00:50:17;;;;;;;;;1.00;1.00;;;;;21.09;54.93;100764.52;110274;1264;18442;-39
2023/04/16 00:52:45;;;;;;;;;1.00;1.00;;;;;21.07;55.05;100767.98;110216;1260;21598;-40
2023/04/16 00:55:12;;;;;;;;;1.00;1.00;;;;;21.09;54.89;100769.81;110232;1264;21919;-39
2023/04/16 00:57:40;;;;;;;;;1.00;1.00;;;;;21.08;55.07;100770.40;110228;1264;19553;-39
2023/04/16 01:00:07;;;;;;;;;2.00;1.00;;;;;21.08;54.88;100768.63;110144;1264;21251;-39
2023/04/16 01:02:34;;;;;;;;;2.00;2.00;;;;;21.07;54.82;100767.06;110237;1264;20687;-39
2023/04/16 01:05:02;;;;;;;;;1.00;1.00;;;;;21.08;54.95;100770.42;110233;1264;18550;-39
2023/04/16 01:07:29;;;;;;;;;1.00;1.00;;;;;21.08;54.94;100770.64;110207;1264;23138;-40
2023/04/16 01:09:57;;;;;;;;;1.00;1.00;;;;;21.07;55.00;100771.88;110211;1264;21825;-40
2023/04/16 01:12:24;;;;;;;;;1.00;1.00;;;;;21.08;54.82;100770.64;110197;1251;18394;-37
2023/04/16 01:14:52;;;;;;;;;1.00;1.00;;;;;21.07;54.87;100768.33;110189;1264;19161;-38
2023/04/16 01:17:19;;;;;;;;;1.00;1.00;;;;;21.08;54.86;100773.54;110251;1250;19383;-38
2023/04/16 01:19:47;;;;;;;;;2.00;2.00;;;;;21.08;54.82;100774.83;110191;1264;20644;-40
2023/04/16 01:22:15;;;;;;;;;1.00;1.00;;;;;21.08;55.00;100774.83;110188;1251;20069;-39
2023/04/16 01:24:42;;;;;;;;;1.00;1.00;;;;;21.07;55.02;100775.33;110253;1250;20612;-38
2023/04/16 01:27:10;;;;;;;;;1.00;1.00;;;;;21.07;54.92;100779.80;110178;1260;18589;-39
2023/04/16 01:29:37;;;;;;;;;1.00;1.00;;;;;21.07;54.82;100778.24;110154;1256;22769;-39
2023/04/16 01:32:05;;;;;;;;;1.00;1.00;;;;;21.08;54.91;100779.36;110158;1251;20911;-38
2023/04/16 01:34:32;;;;;;;;;1.00;1.00;;;;;21.07;54.96;100777.76;110106;1251;19691;-38
2023/04/16 01:36:59;;;;;;;;;1.00;1.00;;;;;21.07;54.99;100777.42;110220;1264;18596;-40
2023/04/16 01:39:27;;;;;;;;;1.00;1.00;;;;;21.08;54.75;100780.28;110218;1264;20750;-37
2023/04/16 01:41:54;;;;;;;;;1.00;1.00;;;;;21.08;55.00;100784.44;110200;1251;19622;-38
2023/04/16 01:44:22;;;;;;;;;1.00;1.00;;;;;21.08;54.75;100785.31;110184;1264;20032;-38
2023/04/16 01:46:49;;;;;;;;;1.00;1.00;;;;;21.07;54.84;100781.27;110204;1251;19296;-38
2023/04/16 01:49:17;;;;;;;;;2.00;1.00;;;;;21.07;55.02;100783.11;110196;1251;21731;-39
2023/04/16 01:51:44;;;;;;;;;2.00;2.00;;;;;21.07;54.80;100780.43;110232;1250;18539;-39
2023/04/16 01:54:12;;;;;;;;;2.00;2.00;;;;;21.06;54.98;100786.49;110207;1250;22232;-39
2023/04/16 01:56:39;;;;;;;;;1.00;1.00;;;;;21.07;54.99;100787.11;110217;1260;18575;-39
2023/04/16 01:59:06;;;;;;;;;2.00;2.00;;;;;21.06;54.85;100786.83;110194;1264;22196;-38
2023/04/16 02:01:34;;;;;;;;;1.00;1.00;;;;;21.06;54.86;100786.08;110221;1252;19321;-40
2023/04/16 02:04:02;;;;;;;;;1.00;1.00;;;;;21.07;54.76;100785.50;110221;1249;19683;-40
2023/04/16 02:06:30;;;;;;;;;1.00;1.00;;;;;21.06;54.92;100787.89;110198;1264;22196;-40
2023/04/16 02:08:57;;;;;;;;;2.00;1.00;;;;;21.06;54.88;100779.04;110168;1257;22142;-40
2023/04/16 02:11:25;;;;;;;;;1.00;1.00;;;;;21.06;54.66;100784.29;110182;1264;19614;-39
2023/04/16 02:13:52;;;;;;;;;2.00;2.00;;;;;21.06;54.79;100787.05;110197;1259;20134;-39
2023/04/16 02:16:20;;;;;;;;;1.00;1.00;;;;;21.07;54.85;100785.67;110175;1264;20767;-43
2023/04/16 02:18:47;;;;;;;;;1.00;1.00;;;;;21.05;54.72;100783.30;110180;1251;20310;-40
2023/04/16 02:21:15;;;;;;;;;1.33;1.33;;;;;21.06;54.80;100785.06;110199;1251;22745;-40
2023/04/16 02:23:46;;;;;;;;;1.00;1.00;;;;;21.06;54.81;100784.15;110178;1264;19690;-40
2023/04/16 02:26:13;;;;;;;;;1.00;1.00;;;;;21.05;54.85;100790.22;110224;1264;18380;-39
2023/04/16 02:28:41;;;;;;;;;1.00;1.00;;;;;21.06;54.77;100791.20;110207;1264;19944;-39
2023/04/16 02:31:08;;;;;;;;;1.00;1.00;;;;;21.06;54.94;100791.40;110184;1264;20730;-39
2023/04/16 02:33:36;;;;;;;;;1.00;1.00;;;;;21.06;54.90;100793.92;110190;1251;19614;-39
2023/04/16 02:36:03;;;;;;;;;1.00;1.00;;;;;21.05;54.83;100794.04;110225;1264;19731;-39
2023/04/16 02:38:30;;;;;;;;;2.00;2.00;;;;;21.05;54.69;100792.60;110216;1251;20578;-39
2023/04/16 02:40:58;;;;;;;;;1.00;1.00;;;;;21.05;54.63;100796.75;110217;1251;19602;-39
2023/04/16 02:43:25;;;;;;;;;1.00;1.00;;;;;21.06;54.77;100798.83;110194;1264;19947;-39
2023/04/16 02:45:53;;;;;;;;;1.33;1.33;;;;;21.05;54.69;100795.46;110193;1264;20904;-40
2023/04/16 02:48:20;;;;;;;;;1.00;1.00;;;;;21.06;54.79;100795.80;110217;1264;20196;-37
2023/04/16 02:50:47;;;;;;;;;1.00;1.00;;;;;21.05;54.79;100798.43;110183;1264;19725;-38
2023/04/16 02:53:15;;;;;;;;;1.00;1.00;;;;;21.04;54.80;100800.28;110214;1264;20648;-38
2023/04/16 02:55:44;;;;;;;;;2.00;2.00;;;;;21.04;54.82;100800.18;110196;1260;18952;-38
2023/04/16 02:58:11;;;;;;;;;1.00;1.00;;;;;21.05;54.68;100806.77;110196;1251;22751;-39
2023/04/16 03:00:39;;;;;;;;;1.00;1.00;;;;;21.04;54.72;100805.20;110222;1264;19360;-39
2023/04/16 03:03:06;;;;;;;;;1.00;1.00;;;;;21.05;54.70;100808.99;110203;1250;20249;-38
2023/04/16 03:05:34;;;;;;;;;2.00;2.00;;;;;21.05;54.83;100811.53;110225;1251;19980;-38
2023/04/16 03:08:01;;;;;;;;;1.00;1.00;;;;;21.04;54.76;100812.29;110176;1250;21954;-39
2023/04/16 03:10:29;;;;;;;;;2.00;1.00;;;;;21.05;54.82;100815.28;110211;1251;18542;-40
2023/04/16 03:12:56;;;;;;;;;1.00;1.00;;;;;21.04;54.70;100816.10;110204;1251;20051;-40
2023/04/16 03:15:24;;;;;;;;;1.00;1.00;;;;;21.04;54.67;100815.24;110229;1264;19335;-40
2023/04/16 03:17:51;;;;;;;;;1.00;1.00;;;;;21.03;54.76;100819.30;110232;1264;22757;-40
2023/04/16 03:20:19;;;;;;;;;1.00;1.00;;;;;21.04;54.74;100820.15;110247;1264;19928;-40
2023/04/16 03:22:46;;;;;;;;;1.00;1.00;;;;;21.04;54.75;100821.76;110209;1251;20794;-40
2023/04/16 03:25:14;;;;;;;;;1.00;1.00;;;;;21.04;54.63;100825.16;110230;1264;18363;-39
2023/04/16 03:27:41;;;;;;;;;1.33;1.33;;;;;21.04;54.60;100825.96;110229;1264;18628;-40
2023/04/16 03:30:09;;;;;;;;;1.00;1.00;;;;;21.04;54.69;100826.27;110189;1264;19904;-40
2023/04/16 03:32:36;;;;;;;;;1.00;1.00;;;;;21.03;54.75;100823.32;110166;1250;18412;-40
2023/04/16 03:35:03;;;;;;;;;1.00;1.00;;;;;21.04;54.64;100832.69;110208;1264;18604;-40
2023/04/16 03:37:31;;;;;;;;;1.00;1.00;;;;;21.03;54.74;100830.02;110142;1251;22071;-40
2023/04/16 03:39:58;;;;;;;;;1.00;1.00;;;;;21.03;54.64;100834.01;110117;1251;19800;-39
2023/04/16 03:42:26;;;;;;;;;1.00;1.00;;;;;21.03;54.82;100832.45;110169;1264;19029;-39
2023/04/16 03:44:53;;;;;;;;;1.00;1.00;;;;;21.03;54.63;100834.80;110189;1260;20817;-39
2023/04/16 03:47:21;;;;;;;;;1.00;1.00;;;;;21.03;54.73;100838.11;110183;1251;21133;-40
2023/04/16 03:49:48;;;;;;;;;1.00;1.00;;;;;21.02;54.84;100837.27;110201;1264;20845;-39
2023/04/16 03:52:16;;;;;;;;;1.00;1.00;;;;;21.04;54.71;100842.90;110199;1264;19227;-40
2023/04/16 03:54:43;;;;;;;;;1.00;1.00;;;;;21.03;54.84;100845.33;110189;1264;20463;-40
2023/04/16 03:57:10;;;;;;;;;1.00;1.00;;;;;21.03;54.77;100846.93;110215;1264;19590;-40
2023/04/16 03:59:38;;;;;;;;;2.00;1.00;;;;;21.03;54.73;100847.54;110220;1251;20929;-39
2023/04/16 04:02:05;;;;;;;;;1.00;1.00;;;;;21.03;54.87;100852.17;110208;1260;20038;-39
2023/04/16 04:04:33;;;;;;;;;1.00;1.00;;;;;21.03;54.67;100854.05;110224;1264;18791;-38
2023/04/16 04:07:00;;;;;;;;;1.00;1.00;;;;;21.03;54.64;100854.21;110208;1264;22073;-39
2023/04/16 04:09:28;;;;;;;;;1.00;1.00;;;;;21.03;54.64;100856.61;110216;1264;19813;-39
2023/04/16 04:11:55;;;;;;;;;1.00;1.00;;;;;21.03;54.73;100856.40;110261;1264;18559;-40
2023/04/16 04:14:22;;;;;;;;;1.00;1.00;;;;;21.03;54.70;100856.55;110195;1251;20803;-40
2023/04/16 04:16:50;;;;;;;;;1.00;1.00;;;;;21.03;54.57;100855.68;110202;1251;19615;-38
2023/04/16 04:19:17;;;;;;;;;1.00;1.00;;;;;21.04;54.72;100861.73;110214;1264;20222;-40
2023/04/16 04:21:45;;;;;;;;;1.00;1.00;;;;;21.03;54.69;100863.08;110196;1264;19593;-40
2023/04/16 04:24:12;;;;;;;;;1.00;1.00;;;;;21.04;54.73;100864.34;110211;1251;18773;-40
2023/04/16 04:26:40;;;;;;;;;1.00;1.00;;;;;21.02;54.81;100868.46;110176;1264;18725;-40
2023/04/16 04:29:08;;;;;;;;;1.00;1.00;;;;;21.03;54.77;100868.80;110189;1264;19328;-40
2023/04/16 04:31:35;;;;;;;;;1.00;1.00;;;;;21.03;54.82;100872.92;110217;1264;18465;-39
2023/04/16 04:34:03;;;;;;;;;1.00;1.00;;;;;21.02;54.58;100875.78;110192;1264;18581;-39
2023/04/16 04:36:31;;;;;;;;;1.00;1.00;;;;;21.03;54.59;100876.35;110203;1264;19668;-39
2023/04/16 04:38:58;;;;;;;;;1.00;1.00;;;;;21.02;54.67;100878.17;110202;1257;19647;-38
2023/04/16 04:41:26;;;;;;;;;1.00;1.00;;;;;21.02;54.73;100881.45;110189;1264;18610;-39
2023/04/16 04:43:54;;;;;;;;;1.00;1.00;;;;;21.03;54.72;100883.52;110242;1264;19390;-41
2023/04/16 04:46:21;;;;;;;;;1.50;1.00;;;;;21.02;54.70;100886.11;110216;1264;18451;-38
2023/04/16 04:48:49;;;;;;;;;1.00;1.00;;;;;21.02;54.74;100885.60;110193;1251;21653;-39
2023/04/16 04:51:16;;;;;;;;;1.67;1.00;;;;;21.01;54.72;100885.88;110185;1251;22213;-38
2023/04/16 04:53:44;;;;;;;;;1.00;1.00;;;;;21.02;54.54;100888.90;110227;1264;18829;-41
2023/04/16 04:56:11;;;;;;;;;1.00;1.00;;;;;21.02;54.56;100890.00;110199;1264;20165;-38
2023/04/16 04:58:39;;;;;;;;;1.00;1.00;;;;;21.02;54.67;100893.77;110204;1251;20799;-39
2023/04/16 05:01:06;;;;;;;;;1.00;1.00;;;;;21.02;54.69;100892.72;110187;1264;19861;-38
2023/04/16 05:03:34;;;;;;;;;2.00;1.00;;;;;21.02;54.58;100894.52;110189;1264;18586;-39
2023/04/16 05:06:01;;;;;;;;;1.00;1.00;;;;;21.02;54.64;100896.13;110221;1264;19191;-39
2023/04/16 05:08:29;;;;;;;;;1.00;1.00;;;;;21.01;54.51;100895.59;110200;1251;19775;-41
2023/04/16 05:10:56;;;;;;;;;1.00;1.00;;;;;21.01;54.63;100890.45;110209;1264;19943;-40
2023/04/16 05:13:24;;;;;;;;;1.00;1.00;;;;;21.01;54.66;100892.04;110185;1250;20852;-41
2023/04/16 05:15:51;;;;;;;;;1.00;1.00;;;;;21.01;54.77;100895.21;110121;1264;22700;-40
2023/04/16 05:18:19;;;;;;;;;1.00;1.00;;;;;21.01;54.69;100896.27;110162;1250;19955;-40
2023/04/16 05:20:46;;;;;;;;;1.00;1.00;;;;;21.00;54.83;100902.13;110180;1264;22158;-40
2023/04/16 05:23:14;;;;;;;;;1.00;1.00;;;;;21.05;54.53;100905.92;110204;1264;22245;-40
2023/04/16 05:25:41;;;;;;;;;1.00;1.00;;;;;21.10;54.75;100910.69;110195;1264;19916;-40
2023/04/16 05:28:09;;;;;;;;;1.00;1.00;;;;;21.12;54.84;100911.40;110234;1264;19424;-40
2023/04/16 05:30:36;;;;;;;;;2.00;2.00;;;;;21.12;54.92;100917.22;110204;1264;19552;-40
2023/04/16 05:33:04;;;;;;;;;5.00;4.00;;;;;21.09;54.88;100919.91;110204;1251;20136;-40
2023/04/16 05:35:31;;;;;;;;;4.00;4.00;;;;;21.03;54.58;100920.75;110186;1251;21957;-40
2023/04/16 05:37:59;;;;;;;;;5.00;5.00;;;;;20.97;54.36;100919.73;110191;1264;19594;-41
2023/04/16 05:40:27;;;;;;;;;6.00;6.00;;;;;20.95;53.75;100923.70;110221;1264;18772;-40
2023/04/16 05:42:54;;;;;;;;;7.50;7.00;;;;;20.91;53.17;100927.89;110232;1251;20754;-41
2023/04/16 05:45:21;;;;;;;;;10.00;8.00;;;;;20.90;52.73;100931.38;110181;1264;19568;-40
2023/04/16 05:47:49;;;;;;;;;4.00;4.00;;;;;20.88;52.30;100930.15;110201;1264;20037;-41
2023/04/16 05:50:16;;;;;;;;;7.00;7.00;;;;;20.86;51.97;100931.23;110152;1264;20688;-39
2023/04/16 05:52:44;;;;;;;;;5.00;5.00;;;;;20.84;51.44;100931.11;110195;1251;19620;-40
2023/04/16 05:55:11;;;;;;;;;4.33;4.33;;;;;20.85;51.38;100935.70;110153;1250;18671;-39
2023/04/16 05:57:39;;;;;;;;;5.00;5.00;;;;;20.86;51.40;100938.70;110233;1264;19535;-40
2023/04/16 06:00:06;;;;;;;;;4.00;4.00;;;;;20.89;51.48;100938.53;110146;1264;18401;-40
2023/04/16 06:02:34;;;;;;;;;4.00;4.00;;;;;20.92;51.57;100940.02;110142;1264;19968;-41
2023/04/16 06:05:01;;;;;;;;;4.00;2.00;;;;;20.93;51.83;100942.77;110215;1264;20702;-40
2023/04/16 06:07:29;;;;;;;;;4.00;4.00;;;;;20.94;51.88;100947.39;110229;1264;22248;-41
2023/04/16 06:09:56;;;;;;;;;4.00;4.00;;;;;20.96;52.11;100950.77;110180;1264;22251;-39
2023/04/16 06:12:24;;;;;;;;;4.00;4.00;;;;;20.97;52.27;100949.16;110231;1264;20897;-39
2023/04/16 06:14:51;;;;;;;;;2.00;2.00;;;;;20.98;52.45;100948.41;110177;1251;19764;-39
2023/04/16 06:17:19;;;;;;;;;4.00;2.00;;;;;20.99;52.40;100957.92;110198;1264;22726;-41
2023/04/16 06:19:46;;;;;;;;;2.00;2.00;;;;;20.98;52.66;100957.27;110219;1264;20948;-40
2023/04/16 06:22:14;;;;;;;;;;;;;;;20.98;52.71;100961.08;110227;1250;19604;-41
2023/04/16 06:24:41;;;;;;;;;4.00;2.00;;;;;20.99;53.00;100963.34;110179;1264;19836;-40
2023/04/16 06:27:09;;;;;;;;;4.00;2.00;;;;;20.99;53.10;100966.07;110210;1264;19486;-40
2023/04/16 06:29:36;;;;;;;;;1.00;1.00;;;;;20.99;53.18;100965.66;110201;1264;18417;-40
2023/04/16 06:32:04;;;;;;;;;2.00;2.00;;;;;20.99;53.10;100966.64;110191;1264;20024;-42
2023/04/16 06:34:32;;;;;;;;;1.50;1.50;;;;;20.98;53.28;100966.84;110244;1264;22299;-40
2023/04/16 06:36:59;;;;;;;;;1.00;1.00;;;;;20.98;53.40;100972.12;110226;1250;19549;-40
2023/04/16 06:39:27;;;;;;;;;2.00;2.00;;;;;20.99;53.53;100972.38;110191;1251;20130;-39
2023/04/16 06:41:55;;;;;;;;;1.00;1.00;;;;;20.98;53.46;100972.30;110187;1264;20740;-40
2023/04/16 06:44:22;;;;;;;;;2.00;2.00;;;;;20.99;53.76;100976.65;110211;1264;20072;-38
2023/04/16 06:46:49;;;;;;;;;2.00;2.00;;;;;20.99;53.57;100978.42;110189;1264;18482;-39
2023/04/16 06:49:17;;;;;;;;;2.00;2.00;;;;;20.99;53.46;100978.60;110219;1264;19328;-40
2023/04/16 06:51:44;;;;;;;;;1.00;1.00;;;;;20.98;53.69;100979.20;110247;1250;18507;-40
2023/04/16 06:54:12;;;;;;;;;1.00;1.00;;;;;20.98;53.65;100978.94;110229;1264;21605;-39
2023/04/16 06:56:39;;;;;;;;;1.00;1.00;;;;;20.98;53.72;100981.63;110258;1264;20718;-39
2023/04/16 06:59:07;;;;;;;;;1.00;1.00;;;;;20.98;53.82;100983.63;110241;1264;18496;-39
2023/04/16 07:01:35;;;;;;;;;1.00;1.00;;;;;20.98;53.66;100985.27;110243;1251;20004;-39
2023/04/16 07:04:03;;;;;;;;;1.00;1.00;;;;;20.98;53.81;100983.56;110198;1249;22184;-39
2023/04/16 07:06:30;;;;;;;;;1.00;1.00;;;;;20.98;53.76;100987.45;110260;1257;18690;-39
2023/04/16 07:08:58;;;;;;;;;1.00;1.00;;;;;20.98;53.94;100988.88;110200;1257;23173;-39
2023/04/16 07:11:26;;;;;;;;;1.00;1.00;;;;;20.98;53.88;100990.55;110245;1264;20682;-40
2023/04/16 07:13:53;;;;;;;;;2.00;2.00;;;;;20.98;53.98;100994.36;110268;1250;22787;-40
2023/04/16 07:16:21;;;;;;;;;2.00;2.00;;;;;20.98;53.95;100996.91;110290;1264;19962;-40
2023/04/16 07:18:48;;;;;;;;;1.00;1.00;;;;;20.97;54.10;100996.65;110188;1264;19823;-38
2023/04/16 07:21:16;;;;;;;;;2.00;2.00;;;;;20.97;54.06;100995.73;110212;1264;19558;-39
2023/04/16 07:23:43;;;;;;;;;2.00;2.00;;;;;20.99;54.10;101000.20;110198;1264;19904;-38
2023/04/16 07:26:11;;;;;;;;;1.00;1.00;;;;;21.01;54.09;101003.05;110220;1251;20834;-40
2023/04/16 07:28:39;;;;;;;;;1.00;1.00;;;;;21.04;54.06;101004.00;110232;1264;18376;-39
2023/04/16 07:31:06;;;;;;;;;1.00;1.00;;;;;21.04;54.28;101003.83;110253;1264;19803;-40
2023/04/16 07:33:33;;;;;;;;;4.00;2.00;;;;;21.05;54.38;101005.50;110165;1264;22104;-39
2023/04/16 07:36:01;;;;;;;;;1.00;1.00;;;;;21.05;54.58;101013.89;110199;1264;18383;-40
2023/04/16 07:38:28;;;;;;;;;1.00;1.00;;;;;21.05;54.51;101011.85;110252;1264;19907;-40
2023/04/16 07:40:56;;;;;;;;;2.00;2.00;;;;;21.06;54.40;101016.27;110258;1264;19715;-40
2023/04/16 07:43:23;;;;;;;;;1.00;1.00;;;;;21.07;54.48;101017.46;110279;1264;18516;-41
2023/04/16 07:45:51;;;;;;;;;1.00;1.00;;;;;21.10;54.76;101017.55;110196;1264;19938;-40
2023/04/16 07:48:18;;;;;;;;;2.00;2.00;;;;;21.10;54.83;101018.77;110203;1264;19406;-39
2023/04/16 07:50:46;;;;;;;;;2.00;2.00;;;;;21.11;54.56;101019.42;110227;1264;19665;-40
2023/04/16 07:53:13;;;;;;;;;2.00;2.00;;;;;21.12;54.60;101018.79;110141;1250;21050;-39
2023/04/16 07:55:41;;;;;;;;;2.00;2.00;;;;;21.13;54.74;101021.82;110147;1264;20389;-39
2023/04/16 07:58:08;;;;;;;;;3.00;2.00;;;;;21.13;55.13;101023.25;110164;1250;19553;-39
2023/04/16 08:00:35;;;;;;;;;2.00;2.00;;;;;21.15;55.16;101025.02;110216;1251;22068;-39
2023/04/16 08:03:03;;;;;;;;;2.00;2.00;;;;;21.16;55.48;101027.80;110213;1264;20720;-39
2023/04/16 08:05:30;;;;;;;;;2.00;2.00;;;;;21.17;55.39;101027.05;110135;1251;22382;-39
2023/04/16 08:07:58;;;;;;;;;4.00;3.00;;;;;21.17;55.48;101031.42;110261;1257;20792;-40
2023/04/16 08:10:26;;;;;;;;;4.00;4.00;;;;;21.20;55.75;101032.80;110209;1257;21047;-40
2023/04/16 08:12:54;;;;;;;;;2.00;2.00;;;;;21.20;55.78;101033.11;110144;1251;19683;-40
2023/04/16 08:15:21;;;;;;;;;2.00;2.00;;;;;21.19;56.06;101037.38;110183;1264;22756;-40
2023/04/16 08:17:49;;;;;;;;;2.00;2.00;;;;;21.18;56.03;101037.55;110161;1264;20743;-39
2023/04/16 08:20:17;;;;;;;;;2.00;2.00;;;;;21.18;56.16;101040.08;110153;1264;22254;-39
2023/04/16 08:22:44;;;;;;;;;2.00;2.00;;;;;21.17;56.15;101039.31;110135;1264;19978;-42
2023/04/16 08:25:11;;;;;;;;;2.00;2.00;;;;;21.18;56.15;101039.48;110119;1264;19395;-40
2023/04/16 08:27:39;;;;;;;;;2.00;2.00;;;;;21.20;56.27;101041.86;109890;1264;354144;-40
2023/04/16 08:30:07;;;;;;;;;1.00;1.00;;;;;21.21;56.37;101044.83;110129;1264;19938;-39
2023/04/16 08:32:34;;;;;;;;;2.00;2.00;;;;;21.23;56.82;101048.01;110131;1257;19384;-39
2023/04/16 08:35:02;;;;;;;;;2.00;1.00;;;;;21.24;56.61;101047.60;110165;1264;19977;-39
2023/04/16 08:37:29;;;;;;;;;2.00;2.00;;;;;21.24;56.73;101051.41;110206;1264;19012;-41
2023/04/16 08:39:56;;;;;;;;;2.00;2.00;;;;;21.21;56.67;101053.21;110164;1264;21837;-40
2023/04/16 08:42:25;;;;;;;;;2.00;2.00;;;;;21.19;56.53;101056.73;110202;1264;18469;-41
2023/04/16 08:44:52;;;;;;;;;2.00;2.00;;;;;21.18;56.40;101057.76;110277;1264;21959;-40
2023/04/16 08:47:20;;;;;;;;;2.00;2.00;;;;;21.17;56.22;101065.59;110261;1264;22091;-39
2023/04/16 08:49:48;;;;;;;;;4.00;4.00;;;;;21.17;56.27;101067.86;110261;1264;18524;-40
2023/04/16 08:52:15;;;;;;;;;2.00;2.00;;;;;21.18;56.04;101075.52;110287;1257;18623;-39
2023/04/16 08:54:43;;;;;;;;;5.00;5.00;;;;;21.12;55.67;101075.81;110308;1264;19550;-39
2023/04/16 08:57:10;;;;;;;;;7.67;7.00;;;;;21.08;55.27;101078.82;110192;1251;18463;-38
2023/04/16 08:59:38;;;;;;;;;4.00;4.00;;;;;21.04;54.89;101083.01;110207;1264;19932;-39
2023/04/16 09:02:05;;;;;;;;;7.00;5.00;;;;;21.08;54.82;101089.00;110202;1264;22203;-39
2023/04/16 09:04:33;;;;;;;;;5.00;5.00;;;;;21.10;54.73;101087.10;110188;1264;21010;-41
2023/04/16 09:07:00;;;;;;;;;5.00;5.00;;;;;21.12;54.79;101090.44;110210;1264;18621;-42
2023/04/16 09:09:27;;;;;;;;;5.00;4.00;;;;;21.11;54.66;101091.96;110209;1264;19319;-39
2023/04/16 09:11:55;;;;;;;;;5.00;4.00;;;;;21.10;54.75;101095.30;110220;1264;18313;-40
2023/04/16 09:14:22;;;;;;;;;4.00;4.00;;;;;21.09;54.86;101097.75;110222;1251;18531;-40
2023/04/16 09:16:50;;;;;;;;;5.00;4.00;;;;;21.08;54.88;101096.92;110227;1264;20694;-41
2023/04/16 09:19:17;;;;;;;;;3.00;3.00;;;;;21.09;54.89;101103.20;110264;1250;18563;-40
2023/04/16 09:21:45;;;;;;;;;4.00;4.00;;;;;21.09;54.89;101102.31;110191;1264;22738;-41
2023/04/16 09:24:12;;;;;;;;;4.00;4.00;;;;;21.08;54.87;101104.06;110249;1251;20780;-40
2023/04/16 09:26:40;;;;;;;;;5.00;4.00;;;;;21.08;54.95;101110.39;110219;1264;18548;-40
2023/04/16 09:29:08;;;;;;;;;5.00;4.00;;;;;21.07;54.90;101108.88;110214;1260;20060;-40
2023/04/16 09:31:35;;;;;;;;;4.00;4.00;;;;;21.08;54.73;101109.16;110174;1264;22744;-40
2023/04/16 09:34:03;;;;;;;;;5.00;5.00;;;;;21.07;54.76;101105.29;110166;1264;19528;-39
2023/04/16 09:36:31;;;;;;;;;4.00;4.00;;;;;21.06;54.71;101110.20;110195;1264;20168;-39
2023/04/16 09:38:58;;;;;;;;;4.00;2.00;;;;;21.06;54.79;101112.95;110231;1264;19379;-39
2023/04/16 09:41:27;;;;;;;;;2.00;2.00;;;;;21.07;54.76;101112.54;110253;1264;18496;-38
2023/04/16 09:43:56;;;;;;;;;4.00;3.00;;;;;21.07;54.71;101109.74;110275;1264;22892;-39
2023/04/16 09:46:23;;;;;;;;;2.00;2.00;;;;;21.06;54.70;101110.78;110263;1251;20957;-39
2023/04/16 09:48:50;;;;;;;;;4.00;4.00;;;;;21.07;54.61;101114.02;110272;1264;21982;-39
2023/04/16 09:51:18;;;;;;;;;2.00;2.00;;;;;21.06;54.62;101116.27;110226;1264;18898;-39
2023/04/16 09:53:45;;;;;;;;;4.00;4.00;;;;;21.07;54.60;101116.53;110228;1260;20750;-40
2023/04/16 09:56:13;;;;;;;;;4.50;3.00;;;;;21.06;54.59;101115.34;110260;1264;18429;-39
2023/04/16 09:58:41;;;;;;;;;4.00;4.00;;;;;21.07;54.46;101124.34;110249;1264;22799;-39
2023/04/16 10:01:08;;;;;;;;;4.00;4.00;;;;;21.07;54.38;101126.14;110189;1264;20600;-39
2023/04/16 10:03:36;;;;;;;;;5.00;4.00;;;;;21.06;54.42;101126.99;110256;1264;22212;-39
2023/04/16 10:06:03;;;;;;;;;4.00;4.00;;;;;21.06;54.25;101131.05;110274;1253;18583;-39
2023/04/16 10:08:31;;;;;;;;;4.00;4.00;;;;;21.05;54.37;101131.96;110268;1257;19844;-39
2023/04/16 10:10:58;;;;;;;;;4.00;4.00;;;;;21.05;54.29;101134.70;110191;1249;23362;-39
2023/04/16 10:13:26;;;;;;;;;2.00;2.00;;;;;21.05;54.15;101134.70;110108;1251;20089;-39
2023/04/16 10:15:54;;;;;;;;;4.00;4.00;;;;;21.05;54.16;101140.69;110152;1257;22084;-39
2023/04/16 10:18:21;;;;;;;;;4.00;4.00;;;;;21.05;54.25;101141.78;110212;1264;18455;-39
2023/04/16 10:20:49;;;;;;;;;4.00;4.00;;;;;21.05;54.11;101135.85;110208;1264;20000;-41
2023/04/16 10:23:16;;;;;;;;;4.00;4.00;;;;;21.05;54.05;101143.04;110179;1264;21296;-39
2023/04/16 10:25:44;;;;;;;;;2.00;2.00;;;;;21.06;54.19;101146.11;110250;1264;22527;-39
2023/04/16 10:28:11;;;;;;;;;6.00;2.00;;;;;21.05;54.00;101147.06;110282;1264;23432;-40
2023/04/16 10:30:39;;;;;;;;;4.00;4.00;;;;;21.05;53.98;101150.19;110250;1264;21742;-40
2023/04/16 10:33:06;;;;;;;;;2.00;2.00;;;;;21.05;54.07;101146.55;110236;1264;23516;-39
2023/04/16 10:35:34;;;;;;;;;2.00;2.00;;;;;21.04;53.87;101148.96;110215;1264;19709;-39
2023/04/16 10:38:02;;;;;;;;;4.00;4.00;;;;;21.06;53.96;101150.61;110220;1264;22862;-39
2023/04/16 10:40:29;;;;;;;;;4.00;4.00;;;;;21.06;53.77;101152.45;110236;1257;19544;-40
2023/04/16 10:42:56;;;;;;;;;2.00;2.00;;;;;21.05;53.87;101151.92;110275;1251;21989;-39
2023/04/16 10:45:24;;;;;;;;;5.00;4.00;;;;;21.06;53.81;101152.45;110224;1264;20110;-40
2023/04/16 10:47:52;;;;;;;;;5.00;4.00;;;;;21.05;53.66;101151.02;110119;1264;19716;-40
2023/04/16 10:50:19;;;;;;;;;2.00;2.00;;;;;21.05;53.80;101150.13;110185;1260;23178;-39
2023/04/16 10:52:47;;;;;;;;;2.00;2.00;;;;;21.05;53.74;101153.60;110113;1264;20106;-40
2023/04/16 10:55:14;;;;;;;;;2.00;2.00;;;;;21.05;53.71;101157.58;110081;1249;20884;-40
2023/04/16 10:57:42;;;;;;;;;4.00;3.00;;;;;21.06;53.64;101160.42;110133;1264;21881;-40
2023/04/16 11:00:09;;;;;;;;;2.00;2.00;;;;;21.07;53.54;101166.89;110150;1257;21429;-41
2023/04/16 11:02:37;;;;;;;;;2.00;2.00;;;;;21.07;53.61;101165.42;110212;1264;19568;-40
2023/04/16 11:05:05;;;;;;;;;2.00;2.00;;;;;21.07;53.45;101171.38;110232;1264;23073;-40
2023/04/16 11:07:32;;;;;;;;;4.00;4.00;;;;;21.06;53.50;101171.08;110302;1264;22689;-40
2023/04/16 11:10:01;;;;;;;;;4.00;4.00;;;;;21.07;53.40;101170.33;110203;1264;19523;-40
2023/04/16 11:12:28;;;;;;;;;3.00;3.00;;;;;21.07;53.49;101174.99;110204;1251;19546;-40
2023/04/16 11:14:56;;;;;;;;;2.00;2.00;;;;;21.06;53.53;101176.23;110195;1264;22836;-40
2023/04/16 11:17:23;;;;;;;;;2.00;2.00;;;;;21.06;53.54;101173.67;110195;1264;19555;-40